CheckWX is a tool to help pilots better visualize weather data.  It is not intended as a substitute for an official pre-flight weather briefing.

19:56:05 UTC

LEGA METAR
Armilla Airport
Armilla, Spain
Current

2 hours ago

LEGA 221800Z 19014KT 9999 -RA OVC038 14/11 Q1000
Observed
Nov-22 @ 18:00 UTC
Wind
  • 190° at 14 KTS
Visibility
10,000+ meters
Flight Rules
VFR
Conditions
Light Rain
Cloud Levels
  • Overcast at 3,800' AGL
Temperature
14°C / 57°F
Dewpoint
11°C / 52°F
Humidity
82%
Altimeter
29.53" Hg
Pressure
999.92 hPa
Previous

3 hours ago

LEGA 221700Z 18020G30KT 9999 -SHRA FEW025 BKN045 15/10 Q0999
Observed
Nov-22 @ 17:00 UTC
Wind
  • 180° at 20 KTS
  • Gusting to 30 KTS
Visibility
10,000+ meters
Flight Rules
VFR
Conditions
Light Rain
Cloud Levels
  • Few at 2,500' AGL
  • Broken at 4,500' AGL
Temperature
15°C / 59°F
Dewpoint
10°C / 50°F
Humidity
72%
Altimeter
29.5" Hg
Pressure
998.92 hPa
Previous

4 hours ago

LEGA 221600Z 19016G26KT 9999 -RA BKN029 14/10 Q1001
Observed
Nov-22 @ 16:00 UTC
Wind
  • 190° at 16 KTS
  • Gusting to 26 KTS
Visibility
10,000+ meters
Flight Rules
MVFR
Conditions
Light Rain
Cloud Levels
  • Broken at 2,900' AGL
Temperature
14°C / 57°F
Dewpoint
10°C / 50°F
Humidity
77%
Altimeter
29.56" Hg
Pressure
1000.92 hPa